createdAt,value
2022-10-21T00:01:29.138Z,91.83
2022-10-21T00:03:59.262Z,92.09
2022-10-21T00:06:27.951Z,91.98
2022-10-21T00:08:56.685Z,91.83
2022-10-21T00:11:25.358Z,92.05
2022-10-21T00:13:54.097Z,91.54
2022-10-21T00:16:22.777Z,91.90
2022-10-21T00:18:51.412Z,91.79
2022-10-21T00:21:23.939Z,91.77
2022-10-21T00:23:52.626Z,91.76
2022-10-21T00:26:23.161Z,91.75
2022-10-21T00:28:57.872Z,91.59
2022-10-21T00:31:27.772Z,91.79
2022-10-21T00:33:56.992Z,91.75
2022-10-21T00:36:27.296Z,92.21
2022-10-21T00:38:58.858Z,92.41
2022-10-21T00:41:27.587Z,91.42
2022-10-21T00:44:02.724Z,91.90
2022-10-21T00:46:46.939Z,91.18
2022-10-21T00:49:25.862Z,91.33
2022-10-21T00:52:01.141Z,91.32
2022-10-21T00:54:32.574Z,91.79
2022-10-21T00:57:01.696Z,91.14
2022-10-21T00:59:37.223Z,91.87
2022-10-21T01:02:06.324Z,91.60
2022-10-21T01:04:35.320Z,91.40
2022-10-21T01:07:12.098Z,91.79
2022-10-21T01:09:40.929Z,91.75
2022-10-21T01:12:23.090Z,91.92
2022-10-21T01:14:59.540Z,92.16
2022-10-21T01:17:47.300Z,92.09
2022-10-21T01:20:58.705Z,92.65
2022-10-21T01:24:17.422Z,92.75
2022-10-21T01:27:21.710Z,93.13
2022-10-21T01:30:18.493Z,93.90
2022-10-21T01:33:11.959Z,93.28
2022-10-21T01:35:50.921Z,93.34
2022-10-21T01:38:29.769Z,93.62
2022-10-21T01:41:13.796Z,92.46
2022-10-21T01:43:51.693Z,92.99
2022-10-21T01:46:29.111Z,92.57
2022-10-21T01:49:05.577Z,92.73
2022-10-21T01:51:36.740Z,92.48
2022-10-21T01:54:12.117Z,92.33
2022-10-21T01:56:44.402Z,91.97
2022-10-21T01:59:17.240Z,91.63
2022-10-21T02:01:48.036Z,91.65
2022-10-21T02:04:20.665Z,91.28
2022-10-21T02:06:49.609Z,91.48
2022-10-21T02:09:18.481Z,89.37
2022-10-21T02:11:52.236Z,86.81
2022-10-21T02:14:27.339Z,88.05
2022-10-21T02:16:57.494Z,88.35
2022-10-21T02:19:28.881Z,88.21
2022-10-21T02:22:03.100Z,87.81
2022-10-21T02:24:43.560Z,88.32
2022-10-21T02:27:12.654Z,88.41
2022-10-21T02:29:44.849Z,89.04
2022-10-21T02:32:28.841Z,89.26
2022-10-21T02:35:18.628Z,89.11
2022-10-21T02:38:30.445Z,89.43
2022-10-21T02:41:04.356Z,89.78
2022-10-21T02:43:38.197Z,90.27
2022-10-21T02:46:11.436Z,90.20
2022-10-21T02:48:45.211Z,90.50
2022-10-21T02:51:16.825Z,90.46
2022-10-21T02:53:45.629Z,91.13
2022-10-21T02:56:14.450Z,90.97
2022-10-21T02:58:43.091Z,91.21
2022-10-21T03:01:11.851Z,91.29
2022-10-21T03:03:40.586Z,90.87
2022-10-21T03:06:09.193Z,90.72
2022-10-21T03:08:39.479Z,90.62
2022-10-21T03:11:08.359Z,91.31
2022-10-21T03:13:37.273Z,91.52
2022-10-21T03:16:07.166Z,91.42
2022-10-21T03:18:35.820Z,91.47
2022-10-21T03:21:04.504Z,90.27
2022-10-21T03:23:33.180Z,89.95
2022-10-21T03:26:03.240Z,90.28
2022-10-21T03:28:31.980Z,90.27
2022-10-21T03:31:00.653Z,89.88
2022-10-21T03:33:29.225Z,90.15
2022-10-21T03:35:57.877Z,90.63
2022-10-21T03:38:26.501Z,90.64
2022-10-21T03:40:55.488Z,90.61
2022-10-21T03:43:25.633Z,91.04
2022-10-21T03:45:54.245Z,90.66
2022-10-21T03:48:22.890Z,90.91
2022-10-21T03:50:51.806Z,91.17
2022-10-21T03:53:38.277Z,91.07
2022-10-21T03:56:09.581Z,91.40
2022-10-21T03:58:39.633Z,91.14
2022-10-21T04:01:08.356Z,91.12
2022-10-21T04:03:36.968Z,91.31
2022-10-21T04:06:06.070Z,91.22
2022-10-21T04:08:34.919Z,91.26
2022-10-21T04:11:03.713Z,91.02
2022-10-21T04:13:33.011Z,91.19
2022-10-21T04:18:46.101Z,91.21
2022-10-21T04:21:15.038Z,91.72
2022-10-21T04:23:45.354Z,92.04
2022-10-21T04:26:14.580Z,91.85
2022-10-21T04:28:43.945Z,91.53
2022-10-21T04:31:13.618Z,91.54
2022-10-21T04:33:43.109Z,91.41
2022-10-21T04:36:13.546Z,90.88
2022-10-21T04:38:42.465Z,91.30
2022-10-21T04:41:11.273Z,90.78
2022-10-21T04:43:40.844Z,90.57
2022-10-21T04:46:14.601Z,90.45
2022-10-21T04:48:45.955Z,90.54
2022-10-21T04:51:19.539Z,91.16
2022-10-21T04:53:48.494Z,90.61
2022-10-21T04:56:17.306Z,91.10
2022-10-21T04:58:47.960Z,90.22
2022-10-21T05:01:16.811Z,90.71
2022-10-21T05:03:58.737Z,90.75
2022-10-21T05:06:28.980Z,90.75
2022-10-21T05:08:58.334Z,90.64
2022-10-21T05:11:27.671Z,90.69
2022-10-21T05:13:58.652Z,90.41
2022-10-21T05:16:27.327Z,90.33
2022-10-21T05:18:56.009Z,90.06
2022-10-21T05:21:25.473Z,90.13
2022-10-21T05:23:55.637Z,89.80
2022-10-21T05:26:25.275Z,89.91
2022-10-21T05:28:53.891Z,89.67
2022-10-21T05:31:22.577Z,89.77
2022-10-21T05:33:52.194Z,89.42
2022-10-21T05:36:23.309Z,90.43
2022-10-21T05:38:59.070Z,90.06
2022-10-21T05:41:27.760Z,90.35
2022-10-21T05:43:56.467Z,90.08
2022-10-21T05:46:25.166Z,89.96
2022-10-21T05:48:53.747Z,89.47
2022-10-21T05:51:26.446Z,89.30
2022-10-21T05:53:55.068Z,89.75
2022-10-21T05:56:26.122Z,89.69
2022-10-21T05:58:55.350Z,89.37
2022-10-21T06:01:25.474Z,89.53
2022-10-21T06:03:54.873Z,89.89
2022-10-21T06:06:23.853Z,89.83
2022-10-21T06:08:53.729Z,89.55
2022-10-21T06:11:24.287Z,89.26
2022-10-21T06:13:52.918Z,89.26
2022-10-21T06:16:22.307Z,88.98
2022-10-21T06:18:51.257Z,89.16
2022-10-21T06:21:20.617Z,89.43
2022-10-21T06:23:49.436Z,89.54
2022-10-21T06:26:19.484Z,89.86
2022-10-21T06:28:49.896Z,89.67
2022-10-21T06:31:22.087Z,89.64
2022-10-21T06:33:51.682Z,89.29
2022-10-21T06:36:20.377Z,89.80
2022-10-21T06:38:48.969Z,89.69
2022-10-21T06:41:19.093Z,89.63
2022-10-21T06:43:49.109Z,89.57
2022-10-21T06:46:18.546Z,89.06
2022-10-21T06:48:47.190Z,89.12
2022-10-21T06:51:20.671Z,88.96
2022-10-21T06:53:53.522Z,88.82
2022-10-21T06:56:23.492Z,88.86
2022-10-21T06:58:54.165Z,86.84
2022-10-21T07:01:34.301Z,87.91
2022-10-21T07:04:06.093Z,87.42
2022-10-21T07:06:35.383Z,85.99
2022-10-21T07:09:04.244Z,84.77
2022-10-21T07:11:34.161Z,85.02
2022-10-21T07:14:04.821Z,85.00
2022-10-21T07:16:35.789Z,84.19
2022-10-21T07:19:05.596Z,84.23
2022-10-21T07:21:34.407Z,84.79
2022-10-21T07:24:03.466Z,84.54
2022-10-21T07:26:34.416Z,84.52
2022-10-21T07:29:05.501Z,84.60
2022-10-21T07:31:37.833Z,83.82
2022-10-21T07:34:09.447Z,83.90
2022-10-21T07:36:42.061Z,84.10
2022-10-21T07:39:38.215Z,83.98
2022-10-21T07:42:09.918Z,84.19
2022-10-21T07:44:40.379Z,84.16
2022-10-21T07:47:09.691Z,83.90
2022-10-21T07:49:39.189Z,83.70
2022-10-21T07:52:10.312Z,83.60
2022-10-21T07:54:39.264Z,84.06
2022-10-21T07:57:10.124Z,84.04
2022-10-21T07:59:40.174Z,83.90
2022-10-21T08:02:10.388Z,83.61
2022-10-21T08:04:40.245Z,84.66
2022-10-21T08:07:13.136Z,84.43
2022-10-21T08:09:43.655Z,84.38
2022-10-21T08:12:14.509Z,84.20
2022-10-21T08:14:45.819Z,84.11
2022-10-21T08:17:14.660Z,83.64
2022-10-21T08:19:43.684Z,84.25
2022-10-21T08:22:12.477Z,84.22
2022-10-21T08:24:42.394Z,84.41
2022-10-21T08:27:11.352Z,84.63
2022-10-21T08:29:41.399Z,85.33
2022-10-21T08:32:39.178Z,84.88
2022-10-21T08:35:08.903Z,84.27
2022-10-21T08:37:37.614Z,84.26
2022-10-21T08:40:08.204Z,84.24
2022-10-21T08:42:42.891Z,84.25
2022-10-21T08:45:21.111Z,84.36
2022-10-21T08:47:59.076Z,84.04
2022-10-21T08:50:36.731Z,83.74
2022-10-21T08:53:16.052Z,81.49
2022-10-21T08:55:46.810Z,81.90
2022-10-21T08:58:20.084Z,80.93
2022-10-21T09:00:54.636Z,80.08
2022-10-21T09:03:37.066Z,79.94
2022-10-21T09:06:20.096Z,77.08
2022-10-21T09:09:07.969Z,75.93
2022-10-21T09:11:54.509Z,75.93
2022-10-21T09:14:57.457Z,75.41
2022-10-21T09:17:58.860Z,72.89
2022-10-21T09:20:56.144Z,75.12
2022-10-21T09:23:56.937Z,76.71
2022-10-21T09:26:38.814Z,77.66
2022-10-21T09:29:33.041Z,77.02
2022-10-21T09:32:15.408Z,76.57
2022-10-21T09:34:56.550Z,76.74
2022-10-21T09:37:35.728Z,77.05
2022-10-21T09:40:17.242Z,76.98
2022-10-21T09:42:47.931Z,77.29
2022-10-21T09:45:33.374Z,77.67
2022-10-21T09:48:07.224Z,78.49
2022-10-21T09:50:37.025Z,78.86
2022-10-21T09:53:16.353Z,79.00
2022-10-21T09:55:48.119Z,78.47
2022-10-21T09:58:28.025Z,77.63
2022-10-21T10:00:58.773Z,77.68
2022-10-21T10:03:34.926Z,78.28
2022-10-21T10:06:06.368Z,78.12
2022-10-21T10:08:41.423Z,77.69
2022-10-21T10:11:28.580Z,78.79
2022-10-21T10:14:34.312Z,79.01
2022-10-21T10:17:29.037Z,78.34
2022-10-21T10:20:28.553Z,78.65
2022-10-21T10:23:17.754Z,77.93
2022-10-21T10:25:53.151Z,78.54
2022-10-21T10:28:26.879Z,79.01
2022-10-21T10:30:58.145Z,79.05
2022-10-21T10:33:32.440Z,78.52
2022-10-21T10:36:09.337Z,78.52
2022-10-21T10:38:45.444Z,78.02
2022-10-21T10:41:19.547Z,77.14
2022-10-21T10:43:52.919Z,76.50
2022-10-21T10:46:29.147Z,77.44
2022-10-21T10:49:17.445Z,78.17
2022-10-21T10:51:50.119Z,77.84
2022-10-21T10:54:22.640Z,78.46
2022-10-21T10:58:06.236Z,78.16
2022-10-21T11:00:46.141Z,78.22
2022-10-21T11:03:27.636Z,78.30
2022-10-21T11:06:08.613Z,78.52
2022-10-21T11:08:45.175Z,78.42
2022-10-21T11:11:29.812Z,77.41
2022-10-21T11:14:02.200Z,77.26
2022-10-21T11:17:00.130Z,77.28
2022-10-21T11:20:04.517Z,77.39
2022-10-21T11:22:51.616Z,76.92
2022-10-21T11:25:26.157Z,75.94
2022-10-21T11:28:14.045Z,76.53
2022-10-21T11:31:07.038Z,76.33
2022-10-21T11:33:49.954Z,75.93
2022-10-21T11:36:33.005Z,75.33
2022-10-21T11:39:44.779Z,74.83
2022-10-21T11:42:27.925Z,74.23
2022-10-21T11:45:18.848Z,75.11
2022-10-21T11:47:58.237Z,75.48
2022-10-21T11:50:38.743Z,75.30
2022-10-21T11:53:26.443Z,75.59
2022-10-21T11:56:15.150Z,76.05
2022-10-21T11:59:02.079Z,75.87
2022-10-21T12:01:51.794Z,75.38
2022-10-21T12:04:37.879Z,76.30
2022-10-21T12:07:44.568Z,76.65
2022-10-21T12:10:31.519Z,76.73
2022-10-21T12:13:07.661Z,76.92
2022-10-21T12:15:42.728Z,77.40
2022-10-21T12:18:19.076Z,77.80
2022-10-21T12:20:53.324Z,78.13
2022-10-21T12:23:25.996Z,78.24
2022-10-21T12:26:22.976Z,78.39
2022-10-21T12:29:02.513Z,78.65
2022-10-21T12:31:46.526Z,78.99
2022-10-21T12:34:16.583Z,82.40
2022-10-21T12:36:50.722Z,82.59
2022-10-21T12:39:53.032Z,82.86
2022-10-21T12:42:29.647Z,87.87
2022-10-21T12:44:58.598Z,86.23
2022-10-21T12:47:33.779Z,86.39
2022-10-21T12:50:19.481Z,86.49
2022-10-21T12:53:13.299Z,87.49
2022-10-21T12:55:51.416Z,88.03
2022-10-21T12:58:37.926Z,88.90
2022-10-21T13:01:09.254Z,89.50
2022-10-21T13:03:55.342Z,89.95
2022-10-21T13:06:54.333Z,90.11
2022-10-21T13:09:41.839Z,90.79
2022-10-21T13:12:30.552Z,90.99
2022-10-21T13:15:02.273Z,91.91
2022-10-21T13:17:51.748Z,92.79
2022-10-21T13:20:49.067Z,93.02
2022-10-21T13:23:37.070Z,93.22
2022-10-21T13:26:24.162Z,93.26
2022-10-21T13:29:06.707Z,93.60
2022-10-21T13:31:36.080Z,94.16
2022-10-21T13:34:07.132Z,94.53
2022-10-21T13:36:43.351Z,94.94
2022-10-21T13:39:28.656Z,94.94
2022-10-21T13:42:06.163Z,95.21
2022-10-21T13:44:39.713Z,95.59
2022-10-21T13:47:31.496Z,96.03
2022-10-21T13:50:14.500Z,96.11
2022-10-21T13:52:46.673Z,96.37
2022-10-21T13:55:21.871Z,96.83
2022-10-21T13:57:55.092Z,96.99
2022-10-21T14:00:27.797Z,97.20
2022-10-21T14:03:03.729Z,98.76
2022-10-21T14:05:39.038Z,98.74
2022-10-21T14:08:22.357Z,98.30
2022-10-21T14:11:00.400Z,98.56
2022-10-21T14:13:37.857Z,98.24
2022-10-21T14:16:10.665Z,98.30
2022-10-21T14:18:43.377Z,98.18
2022-10-21T14:21:21.258Z,98.09
2022-10-21T14:23:51.364Z,98.05
2022-10-21T14:26:20.920Z,98.24
2022-10-21T14:28:54.067Z,98.29
2022-10-21T14:31:30.982Z,98.35
2022-10-21T14:34:28.021Z,98.95
2022-10-21T14:37:09.462Z,98.96
2022-10-21T14:39:40.980Z,99.13
2022-10-21T14:42:25.055Z,99.43
2022-10-21T14:46:11.214Z,99.56
2022-10-21T14:48:52.139Z,98.70
2022-10-21T14:51:23.795Z,98.47
2022-10-21T14:53:57.592Z,99.08
2022-10-21T14:56:34.017Z,100.00
2022-10-21T14:59:17.768Z,98.86
2022-10-21T15:01:46.919Z,98.60
2022-10-21T15:04:44.186Z,97.98
2022-10-21T15:07:31.674Z,97.69
2022-10-21T15:10:20.118Z,97.07
2022-10-21T15:12:54.042Z,96.70
2022-10-21T15:15:54.109Z,96.75
2022-10-21T15:18:32.378Z,97.36
2022-10-21T15:21:06.558Z,97.04
2022-10-21T15:23:40.230Z,96.74
2022-10-21T15:26:19.931Z,97.30
2022-10-21T15:28:49.197Z,96.40
2022-10-21T15:31:22.102Z,95.34
2022-10-21T15:33:54.709Z,93.41
2022-10-21T15:36:25.531Z,92.57
2022-10-21T15:38:55.460Z,92.55
2022-10-21T15:41:27.088Z,92.60
2022-10-21T15:50:57.487Z,92.17
2022-10-21T15:53:27.053Z,92.03
2022-10-21T15:55:56.588Z,92.10
2022-10-21T15:58:26.962Z,92.33
2022-10-21T16:00:56.065Z,92.44
2022-10-21T16:03:25.478Z,92.36
2022-10-21T16:05:55.107Z,92.67
2022-10-21T16:08:25.497Z,92.23
2022-10-21T16:10:55.647Z,93.09
2022-10-21T16:13:25.199Z,93.48
2022-10-21T16:15:54.440Z,93.49
2022-10-21T16:18:26.799Z,93.13
2022-10-21T16:20:58.767Z,93.01
2022-10-21T16:23:29.051Z,93.09
2022-10-21T16:25:58.815Z,93.60
2022-10-21T16:28:28.131Z,93.21
2022-10-21T16:30:57.837Z,93.19
2022-10-21T16:33:26.471Z,93.40
2022-10-21T16:35:55.849Z,93.38
2022-10-21T16:38:29.308Z,93.46
2022-10-21T16:40:59.256Z,93.98
2022-10-21T16:43:31.410Z,93.92
2022-10-21T16:46:00.475Z,94.00
2022-10-21T16:48:30.542Z,93.89
2022-10-21T16:51:00.066Z,94.73
2022-10-21T16:53:31.980Z,96.16
2022-10-21T16:56:01.658Z,95.97
2022-10-21T16:58:30.880Z,95.99
2022-10-21T17:01:00.265Z,95.84
2022-10-21T17:03:30.166Z,96.34
2022-10-21T17:06:01.467Z,96.40
2022-10-21T17:08:34.561Z,96.83
2022-10-21T17:11:08.294Z,96.94
2022-10-21T17:13:38.334Z,96.92
2022-10-21T17:16:36.905Z,96.90
2022-10-21T17:19:08.083Z,96.85
2022-10-21T17:21:37.998Z,96.97
2022-10-21T17:24:10.260Z,96.96
2022-10-21T17:26:39.973Z,96.92
2022-10-21T17:29:10.668Z,96.89
2022-10-21T17:31:41.136Z,97.43
2022-10-21T17:34:25.780Z,97.20
2022-10-21T17:36:54.664Z,97.24
2022-10-21T17:39:24.819Z,96.54
2022-10-21T17:41:53.655Z,96.30
2022-10-21T17:44:22.620Z,96.01
2022-10-21T17:46:54.646Z,95.92
2022-10-21T17:49:24.594Z,95.71
2022-10-21T17:51:57.491Z,95.79
2022-10-21T17:54:29.232Z,95.69
2022-10-21T17:56:59.454Z,95.91
2022-10-21T17:59:29.488Z,95.85
2022-10-21T18:01:58.745Z,95.78
2022-10-21T18:04:28.543Z,95.79
2022-10-21T18:06:57.236Z,96.09
2022-10-21T18:09:27.512Z,95.93
2022-10-21T18:11:58.606Z,95.89
2022-10-21T18:14:29.535Z,96.17
2022-10-21T18:16:58.946Z,96.10
2022-10-21T18:19:29.123Z,95.93
2022-10-21T18:21:59.075Z,96.30
2022-10-21T18:24:29.918Z,97.47
2022-10-21T18:26:59.117Z,97.27
2022-10-21T18:29:28.332Z,97.01
2022-10-21T18:31:57.921Z,97.54
2022-10-21T18:34:27.715Z,97.89
2022-10-21T18:36:59.609Z,96.81
2022-10-21T18:39:30.300Z,96.27
2022-10-21T18:41:59.966Z,95.82
2022-10-21T18:44:30.458Z,95.61
2022-10-21T18:46:59.640Z,95.47
2022-10-21T18:49:28.310Z,94.97
2022-10-21T18:51:57.754Z,94.75
2022-10-21T18:54:27.238Z,95.38
2022-10-21T18:56:57.766Z,95.47
2022-10-21T18:59:26.903Z,95.19
2022-10-21T19:01:55.852Z,95.20
2022-10-21T19:04:25.828Z,94.95
2022-10-21T19:06:58.759Z,94.73
2022-10-21T19:09:28.990Z,94.53
2022-10-21T19:12:00.597Z,94.67
2022-10-21T19:14:29.579Z,94.96
2022-10-21T19:16:58.638Z,94.80
2022-10-21T19:19:27.861Z,95.21
2022-10-21T19:21:56.581Z,95.05
2022-10-21T19:24:27.331Z,95.30
2022-10-21T19:27:00.524Z,95.47
2022-10-21T19:29:29.592Z,95.16
2022-10-21T19:31:58.560Z,95.52
2022-10-21T19:34:28.845Z,95.13
2022-10-21T19:36:57.860Z,94.87
2022-10-21T19:39:26.744Z,95.52
2022-10-21T19:41:55.948Z,95.00
2022-10-21T19:44:26.200Z,94.97
2022-10-21T19:46:54.873Z,95.16
2022-10-21T19:49:24.055Z,94.84
2022-10-21T19:51:53.532Z,95.03
2022-10-21T19:54:22.416Z,94.96
2022-10-21T19:56:51.616Z,95.26
2022-10-21T19:59:20.950Z,95.14
2022-10-21T20:01:52.330Z,95.01
2022-10-21T20:04:22.802Z,95.08
2022-10-21T20:06:53.148Z,95.23
2022-10-21T20:09:22.423Z,95.58
2022-10-21T20:11:51.749Z,95.00
2022-10-21T20:14:21.005Z,94.96
2022-10-21T20:16:52.423Z,95.03
2022-10-21T20:19:21.303Z,95.25
2022-10-21T20:21:50.536Z,95.10
2022-10-21T20:24:19.772Z,94.90
2022-10-21T20:26:51.444Z,95.16
2022-10-21T20:29:20.287Z,95.08
2022-10-21T20:31:48.866Z,95.34
2022-10-21T20:34:18.897Z,95.05
2022-10-21T20:36:47.536Z,95.18
2022-10-21T20:39:16.246Z,95.28
2022-10-21T20:41:44.926Z,95.43
2022-10-21T20:44:17.435Z,95.25
2022-10-21T20:46:47.557Z,95.02
2022-10-21T20:49:16.332Z,95.27
2022-10-21T20:51:46.290Z,95.68
2022-10-21T20:54:20.413Z,95.47
2022-10-21T20:56:49.033Z,95.23
2022-10-21T20:59:18.543Z,95.38
2022-10-21T21:01:48.680Z,95.29
2022-10-21T21:04:20.778Z,95.42
2022-10-21T21:06:52.154Z,95.51
2022-10-21T21:09:57.838Z,95.36
2022-10-21T21:12:11.677Z,95.50
2022-10-21T21:14:40.605Z,95.33
2022-10-21T21:17:09.367Z,95.22
2022-10-21T21:19:39.833Z,95.18
2022-10-21T21:22:09.922Z,95.32
2022-10-21T21:24:38.536Z,94.90
2022-10-21T21:27:07.172Z,95.12
2022-10-21T21:29:36.168Z,94.85
2022-10-21T21:32:04.839Z,94.80
2022-10-21T21:34:33.650Z,95.25
2022-10-21T21:37:02.322Z,95.14
2022-10-21T21:39:32.361Z,95.08
2022-10-21T21:42:01.005Z,94.85
2022-10-21T21:44:29.767Z,95.46
2022-10-21T21:46:58.495Z,96.04
2022-10-21T21:49:27.068Z,95.68
2022-10-21T21:51:55.804Z,95.81
2022-10-21T21:54:24.453Z,96.41
2022-10-21T21:57:00.655Z,96.52
2022-10-21T21:59:43.102Z,96.33
2022-10-21T22:02:11.812Z,96.92
2022-10-21T22:04:40.606Z,96.30
2022-10-21T22:07:09.212Z,96.49
2022-10-21T22:09:37.854Z,96.85
2022-10-21T22:12:09.927Z,96.83
2022-10-21T22:14:40.385Z,96.89
2022-10-21T22:17:09.019Z,97.27
2022-10-21T22:19:38.003Z,96.75
2022-10-21T22:22:06.695Z,96.67
2022-10-21T22:24:36.434Z,96.62
2022-10-21T22:27:05.201Z,96.38
2022-10-21T22:29:35.233Z,97.14
2022-10-21T22:32:03.946Z,96.99
2022-10-21T22:34:32.529Z,97.10
2022-10-21T22:37:02.277Z,97.19
2022-10-21T22:39:31.048Z,96.94
2022-10-21T22:41:59.724Z,97.39
2022-10-21T22:44:28.456Z,97.20
2022-10-21T22:46:58.481Z,97.48
2022-10-21T22:49:27.353Z,97.17
2022-10-21T22:51:56.072Z,97.38
2022-10-21T22:54:48.177Z,97.16
2022-10-21T22:57:13.496Z,97.35
2022-10-21T22:59:44.052Z,97.41
2022-10-21T23:02:14.446Z,97.12
2022-10-21T23:04:43.062Z,97.22
2022-10-21T23:07:11.718Z,97.35
2022-10-21T23:09:40.343Z,97.34
2022-10-21T23:12:09.161Z,96.98
2022-10-21T23:14:37.860Z,96.64
2022-10-21T23:17:06.495Z,97.21
2022-10-21T23:19:36.587Z,96.99
2022-10-21T23:22:05.245Z,97.17
2022-10-21T23:24:33.911Z,97.39
2022-10-21T23:27:02.617Z,97.17
2022-10-21T23:29:31.358Z,96.67
2022-10-21T23:32:00.036Z,96.73
2022-10-21T23:34:28.608Z,96.67
2022-10-21T23:36:58.804Z,96.57
2022-10-21T23:39:27.584Z,96.50
2022-10-21T23:41:56.222Z,96.22
2022-10-21T23:44:24.867Z,96.06
2022-10-21T23:46:53.505Z,96.14
2022-10-21T23:49:22.171Z,96.44
2022-10-21T23:51:50.987Z,96.35
2022-10-21T23:54:21.037Z,96.06
2022-10-21T23:56:49.619Z,96.24
2022-10-21T23:59:18.253Z,96.80
